Terminal Aerodrome Forecast
Issued by NWS

Home | Current Version | Previous Version | Text Only | Print | Product List | Glossary On
Versions: 1 2 3 4 5 6 7 8 9 10 11 12 13 14 15 16 17 18 19 20 21 22 23 24 25 26 27 28 29 30 31 32 33 34 35 36
734
FTUS41 KOKX 232323
TAFTEB
TAF
KTEB 232323Z 2400/2506 33011KT P6SM SKC
     FM240200 32006KT P6SM SKC
     FM241400 35007KT P6SM SKC
     FM241600 36010KT P6SM SKC
     FM242000 VRB05KT P6SM SKC
     FM242200 17007KT P6SM SKC
     FM250000 20004KT P6SM SKC=

USA.gov is the U.S. government's official web portal to all federal, state and local government web resources and services.